Time;durP1;ratioP1;P1;durP2;ratioP2;P2;SDS_P1;SDS_P2;PMS_P1;PMS_P2;Temp;Humidity;BMP_temperature;BMP_pressure;BME280_temperature;BME280_humidity;BME280_pressure;Samples;Min_cycle;Max_cycle;Signal;HPM_P1;HPM_P2
2022/06/22 00:00:33;;;;;;;10.00;8.03;;;;;;;12.43;87.84;101242.19;5006985;28;20470;-80
2022/06/22 00:02:58;;;;;;;13.33;7.93;;;;;;;12.45;87.38;101241.97;5006632;28;20111;-79
2022/06/22 00:05:33;;;;;;;11.00;8.47;;;;;;;12.43;88.45;101246.75;5007398;28;20502;-79
2022/06/22 00:07:59;;;;;;;;;;;;;;;12.56;85.74;101254.03;5007317;28;20536;-80
2022/06/22 00:10:32;;;;;;;10.77;7.90;;;;;;;12.41;87.40;101243.44;5007024;28;20002;-81
2022/06/22 00:13:00;;;;;;;11.37;8.20;;;;;;;12.32;87.59;101230.09;5006000;28;20037;-81
2022/06/22 00:15:25;;;;;;;11.90;8.03;;;;;;;12.34;87.71;101235.31;5006015;28;20375;-81
2022/06/22 00:17:51;;;;;;;12.10;8.33;;;;;;;12.26;87.69;101239.09;5006908;28;20045;-80
2022/06/22 00:20:26;;;;;;;12.07;8.30;;;;;;;12.21;87.92;101228.03;4988262;28;20083;-81
2022/06/22 00:22:59;;;;;;;11.57;8.43;;;;;;;12.10;88.02;101217.81;5020483;28;20045;-81
2022/06/22 00:25:34;;;;;;;13.17;9.67;;;;;;;12.13;88.97;101223.66;5006464;28;21473;-79
2022/06/22 00:28:28;;;;;;;11.07;9.00;;;;;;;12.27;89.09;101218.19;5001524;28;20578;-81
2022/06/22 00:31:11;;;;;;;14.10;10.47;;;;;;;12.37;89.86;101224.00;5003934;28;20034;-80
2022/06/22 00:33:37;;;;;;;14.53;11.03;;;;;;;12.36;90.48;101197.03;5002448;28;20041;-80
2022/06/22 00:36:19;;;;;;;15.70;11.63;;;;;;;12.49;90.89;101205.16;5003563;28;20154;-81
2022/06/22 00:38:44;;;;;;;18.03;11.37;;;;;;;12.50;90.99;101215.81;4991770;28;20136;-79
2022/06/22 00:41:22;;;;;;;17.50;11.77;;;;;;;12.50;91.37;101207.66;5003119;28;20048;-79
2022/06/22 00:43:48;;;;;;;16.50;11.93;;;;;;;12.56;91.45;101210.56;5002816;28;20789;-80
2022/06/22 00:46:18;;;;;;;17.27;11.37;;;;;;;12.56;91.58;101205.13;5003616;28;20037;-80
2022/06/22 00:48:46;;;;;;;20.10;12.70;;;;;;;12.58;91.50;101209.28;5002759;28;20057;-79
2022/06/22 00:51:16;;;;;;;17.07;11.90;;;;;;;12.66;91.50;101200.03;5003585;28;20029;-80
2022/06/22 00:53:51;;;;;;;18.87;12.47;;;;;;;12.61;91.94;101203.41;4999802;28;20484;-82
2022/06/22 00:56:16;;;;;;;18.10;12.20;;;;;;;12.58;91.89;101208.44;5003220;28;20485;-80
2022/06/22 00:58:41;;;;;;;20.83;12.57;;;;;;;12.50;91.75;101217.69;5002325;28;20044;-81
2022/06/22 01:01:18;;;;;;;17.10;11.73;;;;;;;12.46;91.18;101213.75;5003126;28;20087;-80
2022/06/22 01:04:09;;;;;;;16.80;11.40;;;;;;;12.48;91.54;101211.63;5002913;28;20026;-80
2022/06/22 01:07:01;;;;;;;17.13;10.80;;;;;;;12.46;90.77;101206.41;5001504;28;20057;-81
2022/06/22 01:09:57;;;;;;;15.57;11.10;;;;;;;12.51;91.04;101203.03;5001132;28;20108;-80
2022/06/22 01:12:33;;;;;;;15.40;10.93;;;;;;;12.45;91.51;101209.34;5002484;28;20084;-81
2022/06/22 01:15:41;;;;;;;17.23;11.70;;;;;;;12.40;91.26;101217.31;5002109;28;20045;-79
2022/06/22 01:18:26;;;;;;;15.97;11.93;;;;;;;12.36;91.86;101216.06;4994318;28;20068;-80
2022/06/22 01:21:10;;;;;;;16.37;10.63;;;;;;;12.35;91.66;101212.53;5003119;28;20030;-81
2022/06/22 01:23:48;;;;;;;19.23;11.63;;;;;;;12.31;92.06;101192.28;5001030;28;20057;-81
2022/06/22 01:26:29;;;;;;;16.87;11.70;;;;;;;12.39;92.22;101199.31;5002603;28;20064;-81
2022/06/22 01:29:13;;;;;;;19.07;12.10;;;;;;;12.40;92.32;101218.16;5012701;28;20048;-79
2022/06/22 01:31:49;;;;;;;18.13;12.38;;;;;;;12.41;92.76;101218.97;5003720;28;20048;-80
2022/06/22 01:34:17;;;;;;;15.30;10.87;;;;;;;12.25;91.47;101225.72;5002138;28;20085;-80
2022/06/22 01:36:43;;;;;;;18.80;11.17;;;;;;;12.20;91.23;101217.38;5002535;28;21436;-80
2022/06/22 01:39:12;;;;;;;16.87;11.10;;;;;;;12.16;91.50;101223.22;5002745;28;20129;-80
2022/06/22 01:41:37;;;;;;;16.10;11.60;;;;;;;12.17;92.38;101215.91;5002471;28;20038;-80
2022/06/22 01:44:17;;;;;;;14.47;10.73;;;;;;;12.17;92.72;101207.75;5002556;28;20085;-80
2022/06/22 01:47:08;;;;;;;17.43;11.60;;;;;;;12.04;91.76;101202.38;5001887;28;20060;-80
2022/06/22 01:49:46;;;;;;;18.67;11.90;;;;;;;12.07;92.84;101189.19;5001582;28;20038;-80
2022/06/22 01:52:21;;;;;;;18.77;12.40;;;;;;;12.10;93.10;101180.63;5000071;28;20524;-80
2022/06/22 01:55:00;;;;;;;17.97;12.37;;;;;;;12.15;93.24;101177.28;5002141;28;20307;-79
2022/06/22 01:57:34;;;;;;;18.90;13.20;;;;;;;12.13;94.19;101166.63;5001420;28;20088;-80
2022/06/22 02:00:05;;;;;;;18.47;13.13;;;;;;;12.07;95.29;101180.22;5001419;28;20081;-79
2022/06/22 02:02:58;;;;;;;18.23;13.83;;;;;;;12.06;95.94;101173.97;5001675;28;20431;-80
2022/06/22 02:05:26;;;;;;;21.50;14.10;;;;;;;12.08;96.31;101187.34;5000807;28;20537;-80
2022/06/22 02:07:56;;;;;;;18.03;13.90;;;;;;;11.93;96.17;101179.41;5002172;28;20037;-79
2022/06/22 02:10:43;;;;;;;18.50;13.40;;;;;;;11.88;95.93;101171.88;5001619;28;20033;-80
2022/06/22 02:13:08;;;;;;;16.47;12.87;;;;;;;11.97;95.29;101186.09;5000250;28;20053;-79
2022/06/22 02:15:40;;;;;;;18.73;13.40;;;;;;;11.92;95.08;101189.41;5001727;28;20029;-80
2022/06/22 02:18:10;;;;;;;20.33;13.00;;;;;;;11.98;95.30;101193.19;5017188;28;20044;-81
2022/06/22 02:20:38;;;;;;;18.40;12.87;;;;;;;11.86;94.80;101197.56;5005850;28;20132;-80
2022/06/22 02:23:22;;;;;;;17.53;12.97;;;;;;;11.91;95.45;101190.47;5000512;28;20053;-80
2022/06/22 02:26:03;;;;;;;19.90;13.25;;;;;;;11.85;94.26;101182.34;5001547;28;21494;-80
2022/06/22 02:28:29;;;;;;;23.10;12.50;;;;;;;11.83;94.31;101175.25;5002197;28;20044;-80
2022/06/22 02:30:55;;;;;;;20.43;13.87;;;;;;;11.96;95.22;101182.53;5000648;28;20542;-81
2022/06/22 02:33:20;;;;;;;17.93;14.17;;;;;;;11.86;95.18;101173.97;5001440;28;20355;-79
2022/06/22 02:35:46;;;;;;;17.67;13.70;;;;;;;11.73;94.61;101174.81;5001860;28;20037;-80
2022/06/22 02:38:14;;;;;;;16.13;12.70;;;;;;;11.69;94.18;101156.47;5000465;28;20474;-80
2022/06/22 02:46:18;;;;;;;20.93;15.57;;;;;;;11.70;96.15;101147.28;5000447;28;20160;-79
2022/06/22 02:48:54;;;;;;;17.80;12.63;;;;;;;11.64;95.73;101141.66;5000706;28;20042;-81
2022/06/22 02:51:27;;;;;;;17.20;13.50;;;;;;;11.66;95.44;101152.31;5000716;28;20382;-80
2022/06/22 02:53:57;;;;;;;18.30;13.17;;;;;;;11.51;95.22;101149.81;5001822;28;20127;-79
2022/06/22 02:56:40;;;;;;;18.47;13.40;;;;;;;11.55;95.13;101167.34;5001199;28;20038;-80
2022/06/22 02:59:08;;;;;;;18.07;13.30;;;;;;;11.49;94.74;101158.19;5000694;28;20034;-79
2022/06/22 03:01:35;;;;;;;17.57;13.40;;;;;;;11.41;94.84;101161.09;5001531;28;20039;-80
2022/06/22 03:04:19;;;;;;;19.43;13.63;;;;;;;11.46;95.59;101163.16;5004641;28;20048;-79
2022/06/22 03:06:51;;;;;;;17.40;13.30;;;;;;;11.41;95.86;101155.69;5000963;28;20190;-79
2022/06/22 03:09:17;;;;;;;19.23;14.53;;;;;;;11.40;95.74;101164.03;5000967;28;20038;-79
2022/06/22 03:11:47;;;;;;;21.83;14.77;;;;;;;11.39;96.14;101171.31;5001287;28;20117;-79
2022/06/22 03:14:20;;;;;;;21.53;14.67;;;;;;;11.32;96.11;101174.03;5001455;28;20477;-79
2022/06/22 03:16:53;;;;;;;20.07;14.73;;;;;;;11.32;96.03;101184.06;4989337;28;20639;-81
2022/06/22 03:19:41;;;;;;;19.80;14.63;;;;;;;11.31;96.37;101175.09;5001367;28;20034;-80
2022/06/22 03:22:21;;;;;;;18.50;14.47;;;;;;;11.23;96.00;101190.72;5000339;28;20081;-79
2022/06/22 03:24:58;;;;;;;20.53;14.67;;;;;;;11.25;97.10;101188.66;5000486;28;20026;-80
2022/06/22 03:27:29;;;;;;;22.93;15.37;;;;;;;11.19;97.26;101167.78;5000987;28;20096;-79
2022/06/22 03:30:00;;;;;;;22.93;15.57;;;;;;;11.24;97.18;101163.38;4999803;28;20110;-81
2022/06/22 03:32:42;;;;;;;18.43;14.17;;;;;;;11.25;96.85;101165.06;5000689;28;20193;-80
2022/06/22 03:35:28;;;;;;;17.83;13.87;;;;;;;11.20;96.99;101164.03;5000666;28;20929;-79
2022/06/22 03:38:01;;;;;;;20.30;13.83;;;;;;;11.15;96.89;101167.34;5000899;28;20347;-79
2022/06/22 03:40:42;;;;;;;18.20;12.97;;;;;;;11.18;97.00;101158.81;4998118;28;20395;-79
2022/06/22 03:43:46;;;;;;;17.00;13.10;;;;;;;11.16;95.68;101158.16;4988751;28;20144;-80
2022/06/22 03:46:25;;;;;;;17.57;13.10;;;;;;;11.14;95.40;101160.28;4992956;28;20033;-80
2022/06/22 03:49:03;;;;;;;17.87;13.13;;;;;;;11.06;95.45;101150.44;5001070;28;20478;-80
2022/06/22 03:51:39;;;;;;;18.17;13.47;;;;;;;11.06;95.70;101152.34;5000436;28;20037;-80
2022/06/22 03:54:13;;;;;;;17.83;13.57;;;;;;;10.98;95.63;101162.31;5000105;28;20034;-79
2022/06/22 03:56:44;;;;;;;17.50;14.33;;;;;;;10.91;96.74;101134.38;4999696;28;20406;-79
2022/06/22 03:59:10;;;;;;;17.67;13.47;;;;;;;10.99;97.04;101152.34;5001586;28;20573;-79
2022/06/22 04:01:37;;;;;;;19.67;13.93;;;;;;;10.97;97.67;101144.41;5000170;28;20092;-79
2022/06/22 04:04:03;;;;;;;19.80;14.70;;;;;;;11.05;97.57;101148.78;5005239;28;20095;-80
2022/06/22 04:06:32;;;;;;;18.73;13.63;;;;;;;11.05;97.10;101145.25;5003290;28;20042;-80
2022/06/22 04:09:03;;;;;;;18.37;14.70;;;;;;;11.12;97.77;101140.66;5001683;28;20612;-80
2022/06/22 04:11:37;;;;;;;19.63;15.03;;;;;;;11.09;97.92;101139.19;5003958;28;20029;-79
2022/06/22 04:14:15;;;;;;;21.52;13.98;;;;;;;11.13;97.70;101136.91;5003928;28;20115;-79
2022/06/22 04:16:48;;;;;;;21.10;16.20;;;;;;;11.16;97.78;101141.91;5004297;28;20041;-80
2022/06/22 04:19:21;;;;;;;27.30;19.48;;;;;;;11.26;98.96;101145.03;5018825;28;20582;-80
2022/06/22 04:21:59;;;;;;;23.43;18.60;;;;;;;11.30;100.00;101154.44;5003158;28;20133;-79
2022/06/22 04:24:30;;;;;;;28.97;22.17;;;;;;;11.43;100.00;101145.44;5003919;28;20040;-79
2022/06/22 04:27:18;;;;;;;30.00;23.40;;;;;;;11.54;100.00;101156.72;5004328;28;20493;-79
2022/06/22 04:29:57;;;;;;;29.30;22.37;;;;;;;11.59;100.00;101156.91;5003812;28;20030;-79
2022/06/22 04:32:28;;;;;;;28.60;20.97;;;;;;;11.65;100.00;101156.91;5003359;28;20021;-79
2022/06/22 04:35:00;;;;;;;25.43;19.80;;;;;;;11.60;100.00;101143.13;5003392;28;20458;-80
2022/06/22 04:38:13;;;;;;;28.43;19.80;;;;;;;11.74;100.00;101162.09;5004310;28;20053;-80
2022/06/22 04:40:54;;;;;;;28.53;19.83;;;;;;;11.78;100.00;101157.94;4980332;28;20573;-80
2022/06/22 04:43:19;;;;;;;26.53;19.30;;;;;;;11.82;100.00;101161.88;4981331;28;20152;-81
2022/06/22 04:45:48;;;;;;;27.00;20.27;;;;;;;11.92;100.00;101173.13;4994630;28;20050;-79
2022/06/22 04:48:16;;;;;;;28.83;19.83;;;;;;;11.98;100.00;101177.75;5003950;28;20046;-80
2022/06/22 04:50:45;;;;;;;26.70;19.53;;;;;;;12.07;100.00;101174.78;5002907;28;20075;-80
2022/06/22 04:53:22;;;;;;;25.03;20.00;;;;;;;12.21;100.00;101173.72;5004212;28;20099;-80
2022/06/22 04:55:50;;;;;;;26.77;19.73;;;;;;;12.31;100.00;101176.78;5001920;28;20061;-80
2022/06/22 04:58:44;;;;;;;29.57;21.23;;;;;;;12.40;100.00;101160.25;5003804;28;20034;-79
2022/06/22 05:01:40;;;;;;;28.57;20.93;;;;;;;12.52;100.00;101174.81;5003814;28;20037;-80
2022/06/22 05:04:13;;;;;;;30.17;21.33;;;;;;;12.61;100.00;101175.41;5007541;28;20545;-80
2022/06/22 05:06:50;;;;;;;26.93;21.57;;;;;;;12.71;100.00;101175.75;5001927;28;20116;-79
2022/06/22 05:09:26;;;;;;;28.07;22.17;;;;;;;12.84;100.00;101188.47;5017678;28;20711;-78
2022/06/22 05:11:51;;;;;;;28.73;22.50;;;;;;;12.95;100.00;101192.38;5002503;28;20470;-80
2022/06/22 05:14:22;;;;;;;26.57;22.03;;;;;;;13.00;100.00;101196.09;5004706;28;20507;-80
2022/06/22 05:16:58;;;;;;;30.40;24.83;;;;;;;13.05;100.00;101197.31;5008964;28;20018;-78
2022/06/22 05:19:30;;;;;;;27.80;22.60;;;;;;;13.12;100.00;101203.53;5007806;28;20113;-80
2022/06/22 05:21:58;;;;;;;26.77;22.27;;;;;;;13.21;99.99;101204.13;5000806;28;20054;-80
2022/06/22 05:24:30;;;;;;;31.33;23.70;;;;;;;13.31;100.00;101209.88;4992752;28;20509;-79
2022/06/22 05:26:58;;;;;;;28.57;23.57;;;;;;;13.36;99.70;101214.72;5002756;28;20407;-80
2022/06/22 05:29:59;;;;;;;30.20;23.80;;;;;;;13.44;100.00;101209.81;5002565;28;20041;-81
2022/06/22 05:32:37;;;;;;;29.60;21.67;;;;;;;13.56;99.77;101209.94;5002303;28;20037;-80
2022/06/22 05:35:09;;;;;;;28.70;23.50;;;;;;;13.62;99.84;101214.47;5002690;28;20113;-81
2022/06/22 05:37:39;;;;;;;30.50;23.77;;;;;;;13.66;99.82;101209.41;5001754;28;20041;-80
2022/06/22 05:40:05;;;;;;;26.50;21.67;;;;;;;13.79;98.77;101209.31;5001197;28;20791;-80
2022/06/22 05:42:31;;;;;;;28.63;20.97;;;;;;;13.89;98.45;101216.94;5006512;28;20049;-80
2022/06/22 05:44:58;;;;;;;27.20;20.60;;;;;;;13.89;98.39;101208.78;5001459;28;20042;-81
2022/06/22 05:47:30;;;;;;;26.67;20.50;;;;;;;14.08;98.59;101223.25;5002006;28;20096;-80
2022/06/22 05:50:07;;;;;;;25.97;19.00;;;;;;;14.12;97.75;101201.84;5002772;28;20076;-80
2022/06/22 05:52:47;;;;;;;26.27;19.23;;;;;;;14.31;96.58;101211.66;5002036;28;20120;-80
2022/06/22 05:55:38;;;;;;;23.97;18.47;;;;;;;14.39;96.21;101216.00;5002074;28;20079;-81
2022/06/22 05:58:24;;;;;;;24.23;18.20;;;;;;;14.45;95.62;101214.25;5002265;28;22087;-80
2022/06/22 06:00:52;;;;;;;25.53;18.90;;;;;;;14.58;95.99;101214.06;5001659;28;20120;-80
2022/06/22 06:03:36;;;;;;;22.77;17.53;;;;;;;14.60;94.57;101220.13;5001846;28;20060;-81
2022/06/22 06:06:13;;;;;;;25.58;18.25;;;;;;;14.82;94.60;101228.69;5001513;28;20659;-80
2022/06/22 06:08:54;;;;;;;22.80;17.63;;;;;;;14.95;94.32;101235.03;5011962;28;20029;-79
2022/06/22 06:11:27;;;;;;;25.57;18.63;;;;;;;14.98;93.16;101235.38;5014398;28;20654;-81
2022/06/22 06:14:00;;;;;;;21.70;16.20;;;;;;;15.16;92.20;101245.44;5001951;28;20041;-83
2022/06/22 06:16:54;;;;;;;23.48;17.45;;;;;;;15.21;93.10;101241.97;5001274;28;21391;-80
2022/06/22 06:19:24;;;;;;;24.40;17.07;;;;;;;15.40;91.80;101242.75;5001625;28;20140;-81
2022/06/22 06:21:54;;;;;;;22.17;17.03;;;;;;;15.54;92.36;101235.16;5001155;28;20144;-81
2022/06/22 06:24:24;;;;;;;21.67;16.90;;;;;;;15.72;91.48;101242.44;5001859;28;20041;-83
2022/06/22 06:29:45;;;;;;;;;;;;;;;15.95;91.27;101249.00;5002501;28;20044;-81
2022/06/22 06:32:28;;;;;;;23.10;16.20;;;;;;;16.04;89.33;101244.84;5001575;28;20269;-82
2022/06/22 06:35:28;;;;;;;21.40;16.17;;;;;;;16.28;89.61;101240.19;5001699;28;20038;-83
2022/06/22 06:38:10;;;;;;;18.73;14.53;;;;;;;16.37;86.52;101238.75;4982602;28;20614;-80
2022/06/22 06:40:43;;;;;;;21.40;15.23;;;;;;;16.48;85.48;101238.94;5001365;28;20117;-82
2022/06/22 06:43:17;;;;;;;18.97;14.80;;;;;;;16.69;85.47;101242.94;5001732;28;20109;-81
2022/06/22 06:45:42;;;;;;;19.52;14.38;;;;;;;16.75;84.65;101213.75;5001668;28;20038;-82
2022/06/22 06:48:15;;;;;;;18.23;14.03;;;;;;;16.98;83.70;101237.50;5001591;28;20228;-82
2022/06/22 06:50:47;;;;;;;17.53;13.73;;;;;;;16.93;80.36;101235.50;5001099;28;21511;-81
2022/06/22 06:53:28;;;;;;;17.67;12.57;;;;;;;17.03;81.40;101230.19;5001411;28;20091;-81
2022/06/22 06:56:04;;;;;;;18.70;13.50;;;;;;;17.10;81.82;101231.97;5006452;28;20048;-82
2022/06/22 06:58:46;;;;;;;17.60;13.27;;;;;;;17.16;80.42;101217.28;5000547;28;20200;-81
2022/06/22 07:01:23;;;;;;;17.00;12.00;;;;;;;17.33;80.67;101211.81;4990006;28;20041;-83
2022/06/22 07:03:56;;;;;;;17.40;13.47;;;;;;;17.32;78.71;101216.44;5000508;28;20734;-82
2022/06/22 07:06:21;;;;;;;18.37;12.90;;;;;;;17.42;78.15;101217.72;5001252;28;20025;-82
2022/06/22 07:09:01;;;;;;;19.20;12.70;;;;;;;17.53;78.52;101206.69;5001227;28;20211;-82
2022/06/22 07:11:34;;;;;;;15.17;11.50;;;;;;;17.65;77.86;101197.53;5000252;28;20038;-81
2022/06/22 07:14:26;;;;;;;19.33;12.17;;;;;;;17.96;77.37;101206.22;5001353;28;20065;-83
2022/06/22 07:16:57;;;;;;;17.93;11.53;;;;;;;18.17;74.49;101207.34;5001367;28;20030;-82
2022/06/22 07:19:28;;;;;;;18.47;11.63;;;;;;;18.24;76.01;101202.50;5000745;28;20044;-83
2022/06/22 07:22:10;;;;;;;17.53;11.63;;;;;;;18.36;75.15;101208.69;5000689;28;20170;-82
2022/06/22 07:24:43;;;;;;;15.53;9.80;;;;;;;18.49;74.16;101206.66;5000713;28;20029;-81
2022/06/22 07:27:33;;;;;;;14.57;10.00;;;;;;;18.58;72.24;101204.25;5000325;28;20347;-81
2022/06/22 07:30:05;;;;;;;13.40;9.90;;;;;;;18.60;73.10;101202.91;5001603;28;20060;-84
2022/06/22 07:32:50;;;;;;;15.20;9.90;;;;;;;18.57;73.30;101208.94;4999734;28;20034;-82
2022/06/22 07:35:28;;;;;;;12.45;9.25;;;;;;;18.47;71.73;101193.19;5001585;28;20120;-81
2022/06/22 07:38:11;;;;;;;14.97;8.53;;;;;;;18.69;71.57;101204.13;5004282;28;20046;-81
2022/06/22 07:40:39;;;;;;;14.63;8.65;;;;;;;18.71;71.85;101192.88;5004675;28;20641;-81
2022/06/22 07:43:05;;;;;;;11.63;8.23;;;;;;;18.90;71.43;101185.16;5004341;28;20458;-82
2022/06/22 07:45:31;;;;;;;12.52;8.13;;;;;;;18.86;68.20;101178.50;5004540;28;20026;-81
2022/06/22 07:48:03;;;;;;;12.05;7.68;;;;;;;18.94;68.13;101182.72;5004699;28;20387;-82
2022/06/22 07:50:36;;;;;;;10.20;7.60;;;;;;;18.93;67.21;101179.16;5003398;28;20037;-82
2022/06/22 07:53:16;;;;;;;11.68;7.63;;;;;;;18.98;68.80;101192.91;5004749;28;20041;-82
2022/06/22 07:55:47;;;;;;;10.50;6.22;;;;;;;18.90;65.13;101198.88;5004117;28;20136;-81
2022/06/22 07:58:27;;;;;;;8.82;5.93;;;;;;;19.06;67.29;101197.94;5004084;28;20375;-82
2022/06/22 08:00:57;;;;;;;12.15;6.38;;;;;;;18.99;66.03;101202.81;5004958;28;20080;-82
2022/06/22 08:03:30;;;;;;;10.98;6.50;;;;;;;18.99;66.41;101197.31;5003947;28;20022;-82
2022/06/22 08:06:00;;;;;;;12.93;6.32;;;;;;;19.00;69.00;101201.75;5009065;28;20593;-81
2022/06/22 08:08:33;;;;;;;9.60;6.30;;;;;;;19.10;66.96;101194.69;5007301;28;20489;-82
2022/06/22 08:11:25;;;;;;;10.98;6.60;;;;;;;19.16;67.92;101208.22;5010184;28;20029;-80
2022/06/22 08:14:04;;;;;;;9.65;5.63;;;;;;;19.11;66.53;101202.66;5025559;28;20358;-81
2022/06/22 08:16:40;;;;;;;8.32;6.20;;;;;;;19.26;66.98;101201.97;5008095;28;20069;-83
2022/06/22 08:19:06;;;;;;;10.25;5.68;;;;;;;19.37;66.48;101200.16;5002535;28;20095;-81
2022/06/22 08:21:36;;;;;;;9.25;5.68;;;;;;;19.80;66.12;101197.41;5003378;28;20398;-82
2022/06/22 08:24:03;;;;;;;11.50;6.32;;;;;;;19.93;64.14;101202.47;5002199;28;20140;-82
2022/06/22 08:26:31;;;;;;;11.25;6.00;;;;;;;20.17;63.81;101202.06;5004259;28;20153;-81
2022/06/22 08:28:58;;;;;;;7.82;5.18;;;;;;;20.40;61.71;101212.63;5003309;28;20041;-82
2022/06/22 08:31:54;;;;;;;13.15;5.88;;;;;;;20.41;62.06;101210.69;5004072;28;20092;-82
2022/06/22 08:34:28;;;;;;;8.73;5.07;;;;;;;20.68;60.01;101220.69;5004423;28;20056;-83
2022/06/22 08:37:05;;;;;;;9.18;5.45;;;;;;;20.78;59.02;101220.75;5003375;28;20030;-82
2022/06/22 08:39:49;;;;;;;9.88;5.60;;;;;;;20.84;58.73;101224.34;5003450;28;20076;-82
2022/06/22 08:42:55;;;;;;;9.70;4.70;;;;;;;20.95;58.29;101215.00;5018950;28;20433;-84
2022/06/22 08:45:44;;;;;;;8.98;4.65;;;;;;;21.35;58.06;101220.81;5003861;28;20037;-82
2022/06/22 08:48:35;;;;;;;7.70;4.50;;;;;;;21.58;55.90;101213.94;5002400;28;20120;-83
2022/06/22 08:51:03;;;;;;;7.88;4.03;;;;;;;22.18;57.32;101216.03;5001420;28;20151;-81
2022/06/22 08:54:06;;;;;;;6.55;3.80;;;;;;;22.42;56.12;101214.31;4998926;28;20112;-83
2022/06/22 08:56:48;;;;;;;7.15;4.00;;;;;;;22.43;52.44;101207.66;4983509;28;21405;-83
2022/06/22 08:59:21;;;;;;;5.30;3.60;;;;;;;22.38;50.71;101217.91;4999359;28;20034;-84
2022/06/22 09:02:05;;;;;;;8.63;3.50;;;;;;;22.85;54.33;101218.53;4998351;28;21397;-83
2022/06/22 09:04:51;;;;;;;6.93;3.65;;;;;;;23.07;52.49;101220.84;4998148;28;20288;-82
2022/06/22 09:07:49;;;;;;;7.93;3.40;;;;;;;23.54;53.77;101215.78;4996974;28;21545;-84
2022/06/22 09:10:45;;;;;;;5.05;3.17;;;;;;;23.84;52.06;101211.91;4987805;28;20133;-83
2022/06/22 09:13:39;;;;;;;6.45;2.70;;;;;;;24.06;46.78;101216.16;4998668;28;20157;-83
2022/06/22 09:16:13;;;;;;;6.60;2.70;;;;;;;24.33;47.87;101217.47;4998448;28;20904;-82
2022/06/22 09:18:47;;;;;;;6.88;3.13;;;;;;;24.56;42.98;101215.78;4997339;28;20063;-83
2022/06/22 09:21:18;;;;;;;4.97;2.53;;;;;;;24.70;43.86;101215.94;4998305;28;20052;-83
2022/06/22 09:23:44;;;;;;;7.07;3.00;;;;;;;24.52;43.29;101204.50;4996763;28;20378;-83
2022/06/22 09:26:30;;;;;;;6.35;2.70;;;;;;;24.98;45.54;101222.41;4999153;28;20056;-84
2022/06/22 09:28:59;;;;;;;5.40;2.50;;;;;;;25.50;45.50;101221.63;4998635;28;20038;-84
2022/06/22 09:31:34;;;;;;;6.25;2.80;;;;;;;25.84;40.28;101226.84;4999646;28;20021;-82
2022/06/22 09:34:21;;;;;;;3.88;2.65;;;;;;;25.96;41.95;101220.78;5002797;28;20032;-84
2022/06/22 09:36:52;;;;;;;7.82;2.50;;;;;;;25.82;41.15;101234.66;5003166;28;20764;-83
2022/06/22 09:39:20;;;;;;;6.38;2.30;;;;;;;26.25;41.27;101228.84;5002663;28;20387;-85
2022/06/22 09:41:49;;;;;;;3.60;2.17;;;;;;;26.20;40.88;101237.28;5002730;28;20099;-83
2022/06/22 09:44:14;;;;;;;7.75;3.00;;;;;;;25.45;39.00;101237.22;5002718;28;20037;-81
2022/06/22 09:47:09;;;;;;;8.77;2.50;;;;;;;25.96;42.86;101229.09;5001823;28;21172;-83
2022/06/22 09:49:58;;;;;;;3.80;2.60;;;;;;;26.19;38.90;101232.03;5006605;28;20037;-83
2022/06/22 09:52:47;;;;;;;6.05;3.00;;;;;;;26.44;39.53;101231.50;5008125;28;20030;-81
2022/06/22 09:58:32;;;;;;;5.80;2.80;;;;;;;27.33;41.20;101224.78;5012685;28;20469;-83
2022/06/22 10:01:32;;;;;;;6.15;2.85;;;;;;;27.40;40.60;101230.75;5001428;28;20029;-83
2022/06/22 10:04:35;;;;;;;6.90;3.05;;;;;;;27.80;40.47;101241.97;5001843;28;20042;-85
2022/06/22 10:07:28;;;;;;;6.38;2.78;;;;;;;27.35;37.58;101223.34;5006202;28;20374;-81
2022/06/22 10:10:03;;;;;;;4.88;3.00;;;;;;;27.59;35.04;101222.19;4998849;28;20045;-82
2022/06/22 10:13:03;;;;;;;3.15;2.65;;;;;;;28.14;40.83;101226.59;4997288;28;20508;-82
2022/06/22 10:15:57;;;;;;;5.55;2.60;;;;;;;28.16;37.98;101223.47;4996877;28;20116;-84
2022/06/22 10:18:41;;;;;;;5.43;2.72;;;;;;;28.03;38.76;101222.44;4997268;28;20042;-83
2022/06/22 10:21:33;;;;;;;4.18;2.60;;;;;;;28.16;37.57;101223.47;4997185;28;20042;-81
2022/06/22 10:24:07;;;;;;;5.85;2.55;;;;;;;28.07;37.19;101224.28;4996997;28;20054;-84
2022/06/22 10:26:57;;;;;;;4.40;2.40;;;;;;;28.46;36.14;101219.81;4997598;28;20037;-82
2022/06/22 10:29:37;;;;;;;4.45;2.75;;;;;;;28.70;37.32;101218.53;5000284;28;20053;-82
2022/06/22 10:32:15;;;;;;;7.90;2.88;;;;;;;28.78;36.99;101214.13;4999436;28;20037;-83
2022/06/22 10:35:07;;;;;;;5.25;2.50;;;;;;;28.70;36.25;101201.81;5005911;28;20112;-83
2022/06/22 10:37:50;;;;;;;4.78;2.00;;;;;;;29.25;36.69;101200.34;4998574;28;20045;-81
2022/06/22 10:47:04;;;;;;;4.95;2.40;;;;;;;28.54;35.10;101195.03;5004551;28;20052;-82
2022/06/22 10:49:41;;;;;;;6.53;2.50;;;;;;;28.21;35.11;101198.28;5007669;28;20120;-82
2022/06/22 10:52:37;;;;;;;4.47;2.47;;;;;;;28.69;36.50;101191.81;5006506;28;20049;-82
2022/06/22 10:55:17;;;;;;;5.47;2.90;;;;;;;28.25;34.64;101188.13;5005884;28;20112;-84
2022/06/22 10:58:20;;;;;;;6.20;2.67;;;;;;;28.94;36.07;101186.56;5005261;28;20029;-81
2022/06/22 11:01:04;;;;;;;5.15;2.53;;;;;;;28.71;35.27;101186.75;5008264;28;20025;-84
2022/06/22 11:03:49;;;;;;;5.55;2.60;;;;;;;28.73;35.48;101186.41;5020678;28;20682;-81
2022/06/22 11:06:39;;;;;;;5.15;2.50;;;;;;;29.05;35.48;101187.88;5006007;28;20032;-82
2022/06/22 11:09:29;;;;;;;5.47;2.70;;;;;;;28.99;35.43;101183.59;5007344;28;20021;-82
2022/06/22 11:12:17;;;;;;;5.28;2.40;;;;;;;28.98;33.36;101190.31;5004626;28;20041;-83
2022/06/22 11:15:09;;;;;;;5.07;2.40;;;;;;;29.43;34.94;101186.34;5002908;28;20034;-83
2022/06/22 11:17:49;;;;;;;5.15;2.20;;;;;;;29.23;33.21;101182.28;5006612;28;20040;-83
2022/06/22 11:20:42;;;;;;;5.25;2.17;;;;;;;29.56;32.04;101190.91;5008960;28;20034;-82
2022/06/22 11:23:15;;;;;;;5.13;2.20;;;;;;;29.00;32.22;101188.03;5003089;28;20414;-82
2022/06/22 11:31:44;;;;;;;4.00;1.92;;;;;;;28.58;33.81;101182.09;5004040;28;20273;-82
2022/06/22 11:34:20;;;;;;;5.45;1.98;;;;;;;28.66;32.85;101181.31;5008343;28;20033;-81
2022/06/22 11:36:58;;;;;;;4.03;2.03;;;;;;;29.03;32.55;101176.22;5011326;28;20041;-82
2022/06/22 11:39:40;;;;;;;3.60;2.00;;;;;;;29.26;32.81;101173.25;5007169;28;20044;-82
2022/06/22 11:42:31;;;;;;;4.97;2.00;;;;;;;29.36;32.11;101189.66;5010607;28;20045;-83
2022/06/22 11:48:07;;;;;;;6.97;2.25;;;;;;;29.45;33.55;101184.06;5007988;28;20099;-81
2022/06/22 11:50:44;;;;;;;4.95;2.20;;;;;;;29.26;33.67;101181.63;5005951;28;20587;-87
2022/06/22 11:53:38;;;;;;;4.00;1.80;;;;;;;29.03;34.72;101184.59;5003546;28;20115;-83
2022/06/22 11:56:34;;;;;;;3.92;2.00;;;;;;;29.16;33.19;101179.97;5007737;28;20075;-82
2022/06/22 11:59:23;;;;;;;4.07;1.95;;;;;;;29.14;33.47;101174.75;5007663;28;20025;-81
2022/06/22 12:02:16;;;;;;;3.35;1.90;;;;;;;28.67;32.73;101185.75;5003894;28;21767;-82
2022/06/22 12:05:09;;;;;;;4.30;2.37;;;;;;;28.87;32.75;101172.28;5005032;28;20104;-81
2022/06/22 12:07:49;;;;;;;2.70;2.08;;;;;;;28.47;32.34;101179.63;5005799;28;20038;-81
2022/06/22 12:10:33;;;;;;;6.18;2.00;;;;;;;28.45;35.10;101172.72;5008530;28;20029;-82
2022/06/22 12:13:16;;;;;;;5.10;2.20;;;;;;;28.22;33.16;101172.03;5005195;28;20116;-83
2022/06/22 12:16:00;;;;;;;3.72;1.95;;;;;;;28.19;32.08;101179.06;5006415;28;20026;-82
2022/06/22 12:18:35;;;;;;;4.40;1.92;;;;;;;28.26;32.22;101175.81;5002782;28;20734;-82
2022/06/22 12:21:40;;;;;;;4.88;1.83;;;;;;;28.41;32.70;101161.44;5007683;28;20043;-81
2022/06/22 12:24:19;;;;;;;2.15;2.00;;;;;;;28.13;33.75;101164.47;5006495;28;20112;-80
2022/06/22 12:26:44;;;;;;;5.93;2.20;;;;;;;27.95;32.45;101155.22;5009688;28;20489;-82
2022/06/22 12:29:36;;;;;;;4.07;2.08;;;;;;;28.11;34.16;101158.41;5007114;28;20041;-80